AirNav   ProFlight Series 2 Aviation Headset
 
 382 users online  

29D Grove City Airport
Grove City, Pennsylvania, USA

GOING TO GROVE CITY?


FAA INFORMATION EFFECTIVE 08 OCTOBER 2020

Location

FAA Identifier: 29D
Lat/Long: 41-08-45.7000N 080-10-03.9000W
41-08.761667N 080-10.065000W
41.1460278,-80.1677500
(estimated)
Elevation: 1370 ft. / 417.6 m (surveyed)
Variation: 09W (2010)
From city: 3 miles W of GROVE CITY, PA
Time zone: UTC -4 (UTC -5 during Standard Time)
Zip code: 16137

Airport Operations

Airport use: Open to the public
Activation date: 02/1975
Control tower: no
ARTCC: CLEVELAND CENTER
FSS: ALTOONA FLIGHT SERVICE STATION
NOTAMs facility: AOO (NOTAM-D service available)
Attendance: MON-FRI 0900-1700
UNATNDD THANKSGIVING, CHRISTMAS & NEW YEAR'S DAY.
Wind indicator: lighted
Segmented circle: yes
Lights: ACTVT PAPI RWY 10 & 28 - CTAF.
Beacon: white-green (lighted land airport)
Operates sunset to sunrise.

Airport Communications

CTAF/UNICOM: 122.725
YOUNGSTOWN APPROACH: 133.95
YOUNGSTOWN DEPARTURE: 133.95
WX AWOS-3PT at UCP (13 nm SW): 124.175 ((724) 652-4184)
WX AWOS-3PT at FKL (20 nm NE): 118.175 ((814) 437-2066)
  • APCH/DEP SVC PRVDD BY CLEVELAND ARTCC (ZOB) ON FREQS 120.775/298.95 (CHARDON RCAG) WHEN YOUNGSTOWN APCH CTL CLSD.
  • COMMUNICATIONS PRVDD BY ALTOONA RADIO ON FREQS 122.1R/115.8T (ELLWOOD CITY RCO).

Nearby radio navigation aids

VOR radial/distance  VOR name  Freq  Var
EWCr014/19.4ELLWOOD CITY VOR/DME115.8008W
FKLr225/(22.5)FRANKLIN VOR109.6006W
YNGr121/25.4YOUNGSTOWN VORTAC109.0005W
CIPr276/32.1CLARION VOR/DME112.9006W

 
NDB name  Hdg/Dist  Freq  Var  ID
CASTLE066/13.427209WUCP ..- -.-. .--.

Airport Services

Fuel available: 100LL JET-A
24 HR FUEL AVBL WITH CREDIT CARD.
JET-A ANTI-ICE INHIBITOR AVBL ON REQ.
Parking: hangars and tiedowns
Bottled oxygen: NONE

Runway Information

Runway 10/28

Dimensions: 4500 x 75 ft. / 1372 x 23 m
Surface: asphalt, in fair condition
Weight bearing capacity: 
Single wheel: 12.5
Runway edge lights: medium intensity
Runway edge markings: RWY MARKINGS ARE FADED.
RUNWAY 10  RUNWAY 28
Latitude: 41-08.776833N41-08.748333N
Longitude: 080-10.555333W080-09.575667W
Elevation: 1370.0 ft.1297.0 ft.
Traffic pattern: leftleft
Runway heading: 101 magnetic, 092 true281 magnetic, 272 true
Markings: nonprecision, in fair conditionnonprecision, in fair condition
Visual slope indicator: 2-light PAPI on left (3.80 degrees glide path)
RWY 10 PAPI UNUSABLE BEYOND 5 DEGREES LEFT OF RUNWAY CENTERLINE.
2-light PAPI on left (3.00 degrees glide path)
Runway end identifier lights: yesyes
Touchdown point: yes, no lightsyes, no lights
Obstructions: 15 ft. brush, 420 ft. from runway, 1 ft. left of centerline, 14:1 slope to clearnone

Airport Ownership and Management from official FAA records

Ownership: Publicly-owned
Owner: BOROUGH OF GROVE CITY
123 W MAIN ST. P.O. BOX 110
GROVE CITY, PA 16127
Phone 724-458-7060
Manager: MICHAEL BAUN
GROVE CITY AIRPORT, 40 OAKLEY KELLY DRIVE
MERCER, PA 16137-8411
Phone 724-748-5530

Airport Operational Statistics

Aircraft based on the field: 13
Single engine airplanes: 7
Multi engine airplanes: 3
Jet airplanes: 1
Helicopters: 2
    
Aircraft operations: avg 35/day *
80% local general aviation
20% transient general aviation
<1% military
<1% air taxi
* for 12-month period ending 05 September 2019

Additional Remarks

DEER & GEESE ON AND INVOF ARPT.
DRAINAGE RAVINE 15 FT DEEP LCTD IN SAFETY AREA NORTH OF RY 10.
TWY LGTS STUB TO APRON.
AVOID OVERFLYING FLD DURG DALGT VFR BECAUSE OF PARACHUTE JUMPING ACTIVITY NW CORNER OF FLD.
FOR CD CTC YOUNGSTOWN APCH AT 330-856-4806, WHEN APCH CLSD CTC CLEVELAND ARTCC AT 440-774-0234.
PORTABLE GROUND PWR UNIT AVBL.
MIRL ARE ON PHOTOCELL, ON REMOTE FOR NGT OPS.

Instrument Procedures

NOTE: All procedures below are presented as PDF files. If you need a reader for these files, you should download the free Adobe Reader.

NOT FOR NAVIGATION. Please procure official charts for flight.
FAA instrument procedures published for use from 08 October 2020 at 0901Z to 05 November 2020 at 0900Z.

 
IAPs - Instrument Approach Procedures
RNAV (GPS) RWY 10 **CHANGED**   download (191KB)
RNAV (GPS) RWY 28 **CHANGED**   download (198KB)
NOTE: Special Take-Off Minimums/Departure Procedures apply   download (477KB)

Other nearby airports with instrument procedures:

KUCP - New Castle Municipal Airport (13 nm SW)
KFKL - Venango Regional Airport (20 nm NE)
KPJC - Zelienople Municipal Airport (21 nm S)
4G1 - Greenville Municipal Airport (21 nm NW)
KYNG - Youngstown-Warren Regional Airport (24 nm W)
 
Loc | Ops | Rwys | IFR | FBO | Links
Com | Nav | Svcs | Stats | Notes
Area around 29D (Grove City Airport)
 
Road maps at: MapQuest Bing Google
 
Aerial photo
WARNING: Photo may not be current or correct
Aerial photo of 29D (Grove City Airport)
Photo by Bill Pixley
Photo taken 20-Aug-2017
looking west-northwest.

Do you have a better or more recent aerial photo of Grove City Airport that you would like to share? If so, please send us your photo.

 
Sectional chart

 
Airport distance calculator
Flying to Grove City Airport? Find the distance to fly.

From to 29D

Sunrise and sunset
Times for 21-Oct-2020
 Local
(UTC-4)
 Zulu
(UTC)
Morning civil twilight07:1311:13
Sunrise07:4111:41
Sunset18:2922:29
Evening civil twilight18:5722:57

Current date and time
Zulu (UTC)  21-Oct-2020 08:45:59
Local (UTC-4)  21-Oct-2020 04:45:59
 
METAR
KUCP 
13nm SW 
210756Z AUTO VRB03KT 9SM FEW042 BKN100 15/14 A3013 RMK AO2 SLP217 T01500144
KFKL 
19nm NE 
210823Z AUTO 17010KT 10SM OVC030 15/14 A3013 RMK AO2
KPJC 
21nm S 
210835Z AUTO 00000KT 1/2SM VCTS FG BKN002 12/12 A3013 RMK AO2 LTG DSNT N AND W
KYNG 
23nm W 
210824Z 15008KT 10SM FEW004 OVC031 16/14 A3010 RMK AO2 TSE23 OCNL LTG DSNT N T01560139
KBTP 
25nm SE 
210839Z AUTO 12004KT 3SM BR CLR 14/14 A3014 RMK AO2 PNO $
KBVI 
25nm SW 
210835Z AUTO 15006KT 4SM VCTS BR CLR 16/14 A3013 RMK AO2 LTG DSNT W THRU N T01550141
TAF
KFKL 
19nm NE 
210520Z 2106/2206 03006KT P6SM BKN002 FM210700 VRB03KT P6SM BKN025 FM211400 20011G18KT P6SM BKN035 FM211700 23012G20KT P6SM VCSH OVC005 FM220100 VRB03KT P6SM OVC025
KYNG 
23nm W 
210538Z 2106/2206 16006KT P6SM -SHRA VCTS OVC010CB TEMPO 2106/2110 OVC003CB FM211000 17008KT P6SM VCSH BKN100 WS020/21035KT FM211500 21009KT P6SM BKN100 FM211800 24009KT P6SM OVC010 FM212000 28006KT P6SM BKN100
NOTAMs
Click for the latest NOTAMs
NOTAMs are issued by the DoD/FAA and will open in a separate window not controlled by AirNav.

 

 
 

Would you like to see your business listed on this page?

 If your business provides an interesting product or service to pilots, flight crews, aircraft, or users of the Grove City Airport, you should consider listing it here.  To start the listing process, click on the button below
 
Add a business
 

Other Pages about Grove City Airport

Update a link
 
Copyright © AirNav, LLC. All rights reserved. Privacy Policy  Contact